Time;durP1;ratioP1;P1;durP2;ratioP2;P2;SDS_P1;SDS_P2;PMS_P1;PMS_P2;Temp;Humidity;BMP_temperature;BMP_pressure;BME280_temperature;BME280_humidity;BME280_pressure;Samples;Min_cycle;Max_cycle;Signal;HPM_P1;HPM_P2
2022/10/16 00:02:18;;;;;;;;;;;;;;;14.09;76.30;100752.97;5013017;28;20398;-75
2022/10/16 00:04:43;;;;;;;;;;;;;;;14.09;76.61;100750.38;5012992;28;19921;-75
2022/10/16 00:07:09;;;;;;;;;;;;;;;14.09;76.54;100752.13;5004093;28;19979;-75
2022/10/16 00:09:34;;;;;;;;;;;;;;;14.08;77.16;100753.03;5006937;28;19921;-75
2022/10/16 00:11:59;;;;;;;;;;;;;;;14.06;76.90;100754.84;5007294;28;19940;-75
2022/10/16 00:14:24;;;;;;;;;;;;;;;14.02;77.19;100751.50;5006945;28;20000;-75
2022/10/16 00:16:50;;;;;;;;;;;;;;;14.05;77.01;100747.94;5008646;28;19921;-75
2022/10/16 00:19:15;;;;;;;;;;;;;;;14.03;77.41;100757.56;5007806;28;19921;-75
2022/10/16 00:21:40;;;;;;;;;;;;;;;14.03;77.25;100754.94;5009290;28;20391;-75
2022/10/16 00:24:08;;;;;;;;;;;;;;;14.04;77.34;100748.81;5005953;28;20441;-75
2022/10/16 00:26:34;;;;;;;;;;;;;;;14.03;76.80;100754.94;5008842;28;19928;-75
2022/10/16 00:29:00;;;;;;;;;;;;;;;14.02;77.10;100759.34;5011437;28;20015;-75
2022/10/16 00:31:25;;;;;;;;;;;;;;;13.98;77.21;100770.78;5008983;28;20044;-75
2022/10/16 00:33:51;;;;;;;;;;;;;;;13.97;76.98;100763.00;5009846;28;20019;-75
2022/10/16 00:36:17;;;;;;;;;;;;;;;13.96;77.25;100769.16;5008565;28;19921;-75
2022/10/16 00:38:43;;;;;;;;;;;;;;;13.92;77.23;100773.63;5008360;28;19918;-75
2022/10/16 00:41:10;;;;;;;;;;;;;;;13.92;77.43;100772.75;5007769;28;20366;-75
2022/10/16 00:43:38;;;;;;;;;;;;;;;13.96;77.04;100764.78;5004791;28;19928;-75
2022/10/16 00:46:24;;;;;;;;;;;;;;;13.96;77.47;100756.09;5008658;28;19993;-75
2022/10/16 00:49:12;;;;;;;;;;;;;;;13.98;77.22;100754.25;5007551;28;20401;-75
2022/10/16 00:51:45;;;;;;;;;;;;;;;13.94;77.44;100763.97;5000108;28;19948;-75
2022/10/16 00:54:13;;;;;;;;;;;;;;;13.97;77.09;100753.41;5009112;28;20405;-75
2022/10/16 00:56:39;;;;;;;;;;;;;;;13.96;77.03;100767.38;5007014;28;19922;-75
2022/10/16 00:59:07;;;;;;;;;;;;;;;13.89;77.17;100760.66;5008653;28;19928;-75
2022/10/16 01:01:32;;;;;;;;;;;;;;;13.94;77.26;100758.72;5014266;28;20063;-75
2022/10/16 01:03:58;;;;;;;;;;;;;;;13.86;77.30;100758.16;5009204;28;21237;-75
2022/10/16 01:06:26;;;;;;;;;;;;;;;13.92;77.06;100763.16;5009761;28;19922;-75
2022/10/16 01:08:51;;;;;;;;;;;;;;;13.89;77.05;100762.41;5011416;28;20419;-75
2022/10/16 01:11:35;;;;;;;;;;;;;;;13.85;76.91;100756.44;5009364;28;19932;-75
2022/10/16 01:14:05;;;;;;;;;;;;;;;13.91;77.02;100761.44;5009724;28;19926;-75
2022/10/16 01:17:00;;;;;;;;;;;;;;;13.89;76.77;100760.66;5010762;28;19968;-75
2022/10/16 01:19:25;;;;;;;;;;;;;;;13.87;77.13;100761.63;4996711;28;19922;-75
2022/10/16 01:21:53;;;;;;;;;;;;;;;13.84;76.93;100762.59;5007367;28;19976;-75
2022/10/16 01:24:36;;;;;;;;;;;;;;;13.87;76.81;100767.72;5009867;28;19928;-75
2022/10/16 01:27:07;;;;;;;;;;;;;;;13.83;76.76;100765.25;5011218;28;19941;-75
2022/10/16 01:29:36;;;;;;;;;;;;;;;13.83;76.84;100776.53;4997639;28;20005;-75
2022/10/16 01:32:08;;;;;;;;;;;;;;;13.80;76.97;100771.41;5009763;28;20299;-75
2022/10/16 01:34:37;;;;;;;;;;;;;;;13.80;76.98;100770.56;5013459;28;19917;-75
2022/10/16 01:37:05;;;;;;;;;;;;;;;13.83;76.85;100765.25;5011658;28;19926;-75
2022/10/16 01:39:32;;;;;;;;;;;;;;;13.79;77.07;100769.72;5011380;28;19929;-75
2022/10/16 01:42:01;;;;;;;;;;;;;;;13.77;76.74;100769.78;5012511;28;19945;-75
2022/10/16 01:44:29;;;;;;;;;;;;;;;13.80;76.56;100776.66;5011333;28;19925;-75
2022/10/16 01:46:55;;;;;;;;;;;;;;;13.75;76.31;100771.59;5010473;28;20000;-75
2022/10/16 01:49:22;;;;;;;;;;;;;;;13.77;76.45;100781.97;5003085;28;20075;-75
2022/10/16 01:51:49;;;;;;;;;;;;;;;13.75;76.39;100779.44;5007699;28;20008;-75
2022/10/16 01:54:16;;;;;;;;;;;;;;;13.80;76.50;100781.00;5010246;28;19948;-75
2022/10/16 01:56:42;;;;;;;;;;;;;;;13.86;76.71;100783.41;5010964;28;19961;-75
2022/10/16 01:59:12;;;;;;;;;;;;;;;13.81;76.60;100780.97;5010899;28;19941;-75
2022/10/16 02:01:39;;;;;;;;;;;;;;;13.81;76.51;100780.13;5010181;28;19925;-75
2022/10/16 02:04:10;;;;;;;;;;;;;;;13.86;76.79;100778.19;5011123;28;20429;-75
2022/10/16 02:06:35;;;;;;;;;;;;;;;13.85;76.50;100781.72;5011383;28;19922;-75
2022/10/16 02:09:01;;;;;;;;;;;;;;;13.85;76.78;100781.72;5006641;28;19952;-75
2022/10/16 02:11:26;;;;;;;;;;;;;;;13.86;76.73;100775.56;5010389;28;19917;-75
2022/10/16 02:13:55;;;;;;;;;;;;;;;13.86;76.81;100786.03;5008766;28;20000;-75
2022/10/16 02:16:20;;;;;;;;;;;;;;;13.86;77.00;100792.09;5000006;28;19948;-75
2022/10/16 02:18:46;;;;;;;;;;;;;;;13.89;76.84;100789.38;5008154;28;20426;-75
2022/10/16 02:21:22;;;;;;;;;;;;;;;13.88;77.03;100787.66;5009154;28;20007;-75
2022/10/16 02:23:54;;;;;;;;;;;;;;;13.89;76.81;100788.53;5007737;28;19984;-75
2022/10/16 02:26:28;;;;;;;;;;;;;;;13.88;77.12;100786.84;5014085;28;20275;-75
2022/10/16 02:28:56;;;;;;;;;;;;;;;13.89;76.75;100776.34;5010786;28;19922;-75
2022/10/16 02:31:30;;;;;;;;;;;;;;;13.91;76.58;100776.28;5011772;28;19967;-75
2022/10/16 02:33:58;;;;;;;;;;;;;;;13.96;76.24;100779.59;5010455;28;19929;-75
2022/10/16 02:36:24;;;;;;;;;;;;;;;13.94;76.50;100787.47;5009599;28;19928;-75
2022/10/16 02:38:50;;;;;;;;;;;;;;;13.95;76.22;100793.53;4998460;28;20012;-75
2022/10/16 02:41:15;;;;;;;;;;;;;;;13.98;76.44;100791.69;5006306;28;20068;-75
2022/10/16 02:43:41;;;;;;;;;;;;;;;13.96;76.26;100800.47;5008042;28;20067;-75
2022/10/16 02:46:06;;;;;;;;;;;;;;;14.02;75.93;100797.66;4993864;28;19930;-75
2022/10/16 02:48:31;;;;;;;;;;;;;;;14.02;76.12;100790.69;4997308;28;20147;-75
2022/10/16 02:50:57;;;;;;;;;;;;;;;13.96;75.85;100785.69;5005719;28;19913;-75
2022/10/16 02:53:22;;;;;;;;;;;;;;;13.99;75.79;100790.78;5008469;28;20012;-75
2022/10/16 02:55:47;;;;;;;;;;;;;;;13.99;76.23;100785.56;5007546;28;20371;-75
2022/10/16 02:58:13;;;;;;;;;;;;;;;14.02;76.03;100803.75;5011828;28;20401;-75
2022/10/16 03:00:38;;;;;;;;;;;;;;;14.03;76.22;100796.72;5010337;28;20138;-75
2022/10/16 03:03:03;;;;;;;;;;;;;;;14.02;75.95;100805.50;5010069;28;19922;-74
2022/10/16 03:05:29;;;;;;;;;;;;;;;14.03;76.14;100805.44;5010302;28;19922;-75
2022/10/16 03:07:54;;;;;;;;;;;;;;;14.02;76.17;100792.44;5008821;28;19921;-75
2022/10/16 03:10:19;;;;;;;;;;;;;;;14.02;76.47;100789.81;5008236;28;19921;-75
2022/10/16 03:12:44;;;;;;;;;;;;;;;13.99;76.43;100787.31;5007634;28;19930;-75
2022/10/16 03:15:10;;;;;;;;;;;;;;;13.98;76.85;100789.06;5009752;28;19918;-75
2022/10/16 03:17:36;;;;;;;;;;;;;;;14.03;76.45;100787.16;5012694;28;20283;-76
2022/10/16 03:20:01;;;;;;;;;;;;;;;14.03;76.22;100783.69;5010614;28;19976;-74
2022/10/16 03:22:27;;;;;;;;;;;;;;;14.01;76.28;100790.72;5008837;28;20361;-74
2022/10/16 03:24:52;;;;;;;;;;;;;;;14.02;76.97;100792.44;5008256;28;20517;-74
2022/10/16 03:27:17;;;;;;;;;;;;;;;14.01;76.44;100801.16;5012843;28;20418;-74
2022/10/16 03:29:43;;;;;;;;;;;;;;;13.98;76.68;100799.53;5013136;28;19918;-74
2022/10/16 03:32:08;;;;;;;;;;;;;;;13.97;76.86;100789.97;5010036;28;20017;-74
2022/10/16 03:34:33;;;;;;;;;;;;;;;13.99;76.67;100792.53;4995814;28;19922;-74
2022/10/16 03:36:59;;;;;;;;;;;;;;;14.00;76.81;100789.00;5008631;28;19960;-74
2022/10/16 03:39:24;;;;;;;;;;;;;;;14.01;76.73;100788.09;4997693;28;20369;-74
2022/10/16 03:41:49;;;;;;;;;;;;;;;14.02;76.40;100795.91;5007957;28;20610;-74
2022/10/16 03:44:14;;;;;;;;;;;;;;;14.02;75.67;100788.06;4997812;28;19967;-74
2022/10/16 03:46:40;;;;;;;;;;;;;;;14.03;75.48;100802.81;5008859;28;19992;-74
2022/10/16 03:49:05;;;;;;;;;;;;;;;14.06;75.38;100807.06;5008921;28;19924;-74
2022/10/16 03:51:30;;;;;;;;;;;;;;;14.03;75.16;100800.19;5008446;28;20394;-74
2022/10/16 03:53:56;;;;;;;;;;;;;;;14.04;74.43;100801.91;5006683;28;19983;-74
2022/10/16 03:56:21;;;;;;;;;;;;;;;14.07;75.29;100811.41;5010483;28;19929;-74
2022/10/16 03:58:46;;;;;;;;;;;;;;;14.09;75.15;100812.19;5009467;28;19973;-74
2022/10/16 04:01:11;;;;;;;;;;;;;;;14.07;75.26;100820.09;5009353;28;20275;-74
2022/10/16 04:03:37;;;;;;;;;;;;;;;14.06;74.81;100821.00;5014788;28;19925;-74
2022/10/16 04:06:02;;;;;;;;;;;;;;;14.06;75.49;100827.97;5005681;28;19922;-74
2022/10/16 04:08:27;;;;;;;;;;;;;;;14.04;75.90;100830.66;5010148;28;19921;-74
2022/10/16 04:10:53;;;;;;;;;;;;;;;14.00;75.88;100844.72;5003373;28;19921;-74
2022/10/16 04:13:18;;;;;;;;;;;;;;;14.03;75.84;100846.34;5007136;28;19922;-74
2022/10/16 04:15:44;;;;;;;;;;;;;;;14.02;75.53;100844.69;5008316;28;19930;-74
2022/10/16 04:18:09;;;;;;;;;;;;;;;14.01;76.28;100838.59;5007561;28;20588;-74
2022/10/16 04:20:35;;;;;;;;;;;;;;;14.00;76.42;100842.09;5005252;28;19925;-74
2022/10/16 04:23:00;;;;;;;;;;;;;;;14.02;76.43;100835.09;5008259;28;20432;-75
2022/10/16 04:25:25;;;;;;;;;;;;;;;14.00;76.15;100828.19;5006465;28;20475;-75
2022/10/16 04:27:52;;;;;;;;;;;;;;;14.02;75.84;100837.69;5008995;28;19924;-75
2022/10/16 04:30:18;;;;;;;;;;;;;;;14.01;76.08;100840.34;5009922;28;19934;-75
2022/10/16 04:32:47;;;;;;;;;;;;;;;14.04;76.07;100848.94;5015565;28;19921;-75
2022/10/16 04:35:12;;;;;;;;;;;;;;;13.97;75.53;100854.41;5003399;28;19929;-74
2022/10/16 04:37:37;;;;;;;;;;;;;;;14.01;75.20;100861.25;4995276;28;19929;-74
2022/10/16 04:40:03;;;;;;;;;;;;;;;14.02;76.15;100860.34;5008542;28;19922;-74
2022/10/16 04:42:28;;;;;;;;;;;;;;;14.01;76.31;100858.63;5011986;28;20374;-74
2022/10/16 04:44:53;;;;;;;;;;;;;;;14.03;75.86;100862.03;5013794;28;19921;-74
2022/10/16 04:47:19;;;;;;;;;;;;;;;14.02;76.09;100862.97;5011158;28;19917;-74
2022/10/16 04:49:44;;;;;;;;;;;;;;;14.05;75.42;100860.25;5012450;28;19921;-74
2022/10/16 04:52:09;;;;;;;;;;;;;;;14.04;75.23;100855.91;5010947;28;19980;-74
2022/10/16 04:54:34;;;;;;;;;;;;;;;14.07;75.73;100861.03;5012742;28;19921;-74
2022/10/16 04:57:00;;;;;;;;;;;;;;;14.07;75.04;100859.28;5013964;28;19921;-74
2022/10/16 04:59:25;;;;;;;;;;;;;;;14.08;74.96;100862.75;5014986;28;19913;-74
2022/10/16 05:01:50;;;;;;;;;;;;;;;14.03;75.40;100862.91;5020932;28;20370;-74
2022/10/16 05:04:16;;;;;;;;;;;;;;;13.95;75.35;100864.91;5014931;28;19925;-74
2022/10/16 05:06:41;;;;;;;;;;;;;;;13.95;74.95;100879.72;5012123;28;19922;-74
2022/10/16 05:09:07;;;;;;;;;;;;;;;13.97;74.93;100888.34;5009898;28;20299;-74
2022/10/16 05:11:33;;;;;;;;;;;;;;;13.94;74.58;100878.88;5010996;28;19914;-74
2022/10/16 05:13:58;;;;;;;;;;;;;;;13.96;75.60;100873.59;5009470;28;19925;-74
2022/10/16 05:16:24;;;;;;;;;;;;;;;13.96;75.30;100871.84;5010014;28;19956;-74
2022/10/16 05:18:50;;;;;;;;;;;;;;;13.95;76.02;100877.13;5013166;28;20468;-74
2022/10/16 05:21:16;;;;;;;;;;;;;;;13.95;75.76;100877.97;5009959;28;19921;-74
2022/10/16 05:23:41;;;;;;;;;;;;;;;13.94;76.08;100865.81;5010757;28;19913;-74
2022/10/16 05:26:06;;;;;;;;;;;;;;;13.98;75.86;100869.19;5012713;28;19933;-74
2022/10/16 05:28:31;;;;;;;;;;;;;;;13.97;76.05;100877.91;5013041;28;19925;-74
2022/10/16 05:30:57;;;;;;;;;;;;;;;13.99;76.39;100879.59;5010144;28;19922;-74
2022/10/16 05:33:23;;;;;;;;;;;;;;;14.01;76.67;100876.91;5007874;28;19968;-74
2022/10/16 05:35:49;;;;;;;;;;;;;;;13.98;76.50;100892.69;5013144;28;20340;-74
2022/10/16 05:38:15;;;;;;;;;;;;;;;13.95;76.55;100898.88;5007099;28;19921;-74
2022/10/16 05:40:40;;;;;;;;;;;;;;;13.99;76.50;100895.25;5004042;28;19940;-75
2022/10/16 05:43:06;;;;;;;;;;;;;;;14.02;76.58;100876.03;5010300;28;19979;-75
2022/10/16 05:45:31;;;;;;;;;;;;;;;13.98;76.73;100890.94;5007833;28;19922;-75
2022/10/16 05:47:56;;;;;;;;;;;;;;;13.97;76.48;100888.34;5009815;28;20267;-75
2022/10/16 05:50:21;;;;;;;;;;;;;;;13.96;76.75;100894.50;4993886;28;19971;-75
2022/10/16 05:52:47;;;;;;;;;;;;;;;13.97;76.45;100901.41;5010408;28;19929;-75
2022/10/16 05:55:12;;;;;;;;;;;;;;;13.97;76.02;100904.03;5009550;28;20279;-75
2022/10/16 05:57:38;;;;;;;;;;;;;;;13.98;75.70;100909.22;5010662;28;19933;-75
2022/10/16 06:00:03;;;;;;;;;;;;;;;13.99;75.76;100923.13;5009821;28;19994;-75
2022/10/16 06:02:29;;;;;;;;;;;;;;;13.98;75.90;100924.03;5010768;28;19937;-75
2022/10/16 06:04:54;;;;;;;;;;;;;;;13.99;76.28;100925.75;5010264;28;19929;-75
2022/10/16 06:07:19;;;;;;;;;;;;;;;14.00;76.75;100922.22;5011164;28;20004;-75
2022/10/16 06:09:47;;;;;;;;;;;;;;;14.01;76.25;100927.41;5008447;28;20325;-75
2022/10/16 06:12:13;;;;;;;;;;;;;;;14.00;76.35;100930.03;5007007;28;19914;-75
2022/10/16 06:14:38;;;;;;;;;;;;;;;13.98;76.67;100937.94;5010081;28;19918;-75
2022/10/16 06:17:03;;;;;;;;;;;;;;;13.95;76.54;100945.00;5010088;28;19926;-75
2022/10/16 06:19:28;;;;;;;;;;;;;;;13.92;76.84;100945.13;5010758;28;19939;-75
2022/10/16 06:21:54;;;;;;;;;;;;;;;13.95;76.84;100952.84;4995404;28;19930;-75
2022/10/16 06:24:19;;;;;;;;;;;;;;;13.96;77.13;100950.22;5010808;28;19972;-75
2022/10/16 06:26:44;;;;;;;;;;;;;;;13.93;77.27;100955.53;5009692;28;19922;-76
2022/10/16 06:29:10;;;;;;;;;;;;;;;13.91;77.32;100959.09;5008618;28;19922;-76
2022/10/16 06:31:35;;;;;;;;;;;;;;;13.89;77.21;100958.28;4993219;28;19925;-76
2022/10/16 06:34:00;;;;;;;;;;;;;;;13.86;77.51;100953.13;5007457;28;19929;-76
2022/10/16 06:36:26;;;;;;;;;;;;;;;13.88;77.91;100961.81;5008761;28;19925;-76
2022/10/16 06:38:52;;;;;;;;;;;;;;;13.83;77.97;100976.75;5010941;28;19941;-76
2022/10/16 06:41:18;;;;;;;;;;;;;;;13.85;78.15;100986.22;5021796;28;19922;-76
2022/10/16 06:43:45;;;;;;;;;;;;;;;13.87;78.08;100994.91;4995530;28;20443;-76
2022/10/16 06:46:11;;;;;;;;;;;;;;;13.88;78.06;100983.53;5006478;28;20299;-76
2022/10/16 06:48:36;;;;;;;;;;;;;;;13.85;78.19;100975.78;5009581;28;20016;-76
2022/10/16 06:51:03;;;;;;;;;;;;;;;13.87;78.79;100987.06;5010136;28;20016;-76
2022/10/16 06:53:32;;;;;;;;;;;;;;;13.82;78.56;100996.78;5009714;28;19922;-75
2022/10/16 06:55:57;;;;;;;;;;;;;;;13.84;78.93;101001.97;5007665;28;19936;-75
2022/10/16 06:58:22;;;;;;;;;;;;;;;13.90;78.34;100999.16;5013574;28;19921;-75
2022/10/16 07:00:48;;;;;;;;;;;;;;;13.89;78.41;101005.28;4983124;28;19956;-76
2022/10/16 07:03:13;;;;;;;;;;;;;;;13.91;78.90;101008.72;5011708;28;19995;-75
2022/10/16 07:05:42;;;;;;;;;;;;;;;13.92;79.00;101013.00;5004849;28;20008;-75
2022/10/16 07:08:08;;;;;;;;;;;;;;;13.89;79.41;101011.34;5006616;28;19921;-76
2022/10/16 07:10:34;;;;;;;;;;;;;;;13.86;79.39;101016.66;5008067;28;20307;-76
2022/10/16 07:12:59;;;;;;;;;;;;;;;13.86;79.40;101027.13;5010516;28;19917;-76
2022/10/16 07:15:25;;;;;;;;;;;;;;;13.85;79.58;101035.00;5007723;28;19925;-76
2022/10/16 07:17:50;;;;;;;;;;;;;;;13.86;79.82;101037.56;5010391;28;19918;-76
2022/10/16 07:20:15;;;;;;;;;;;;;;;13.88;79.76;101040.16;5009768;28;19924;-75
2022/10/16 07:22:40;;;;;;;;;;;;;;;13.89;79.88;101049.66;5008464;28;19928;-76
2022/10/16 07:25:06;;;;;;;;;;;;;;;13.90;79.56;101056.63;5006471;28;19925;-75
2022/10/16 07:27:31;;;;;;;;;;;;;;;13.89;80.06;101054.88;5011620;28;20555;-76
2022/10/16 07:29:56;;;;;;;;;;;;;;;13.91;79.98;101066.16;5012460;28;19925;-76
2022/10/16 07:32:22;;;;;;;;;;;;;;;13.89;80.15;101062.72;5009908;28;20562;-76
2022/10/16 07:34:47;;;;;;;;;;;;;;;13.90;79.91;101067.06;5014477;28;19921;-75
2022/10/16 07:37:12;;;;;;;;;;;;;;;13.88;80.27;101080.16;4991430;28;19925;-75
2022/10/16 07:39:37;;;;;;;;;;;;;;;13.97;79.87;101076.41;5008756;28;19921;-76
2022/10/16 07:42:03;;;;;;;;;;;;;;;13.96;80.29;101075.56;5009945;28;19918;-76
2022/10/16 07:44:28;;;;;;;;;;;;;;;13.99;80.19;101083.31;5005956;28;20431;-76
2022/10/16 07:46:55;;;;;;;;;;;;;;;14.00;79.92;101082.41;4992602;28;19922;-75
2022/10/16 07:49:21;;;;;;;;;;;;;;;14.01;79.89;101083.25;4988608;28;20422;-76
2022/10/16 07:51:46;;;;;;;;;;;;;;;14.04;79.35;101091.00;4990449;28;19928;-75
2022/10/16 07:54:12;;;;;;;;;;;;;;;14.03;79.65;101097.13;5003477;28;19925;-76
2022/10/16 07:56:37;;;;;;;;;;;;;;;14.01;79.79;101106.75;5009798;28;19922;-75
2022/10/16 07:59:02;;;;;;;;;;;;;;;14.00;79.58;101105.03;5010632;28;19917;-76
2022/10/16 08:01:27;;;;;;;;;;;;;;;13.97;79.63;101118.19;4995755;28;19957;-76
2022/10/16 08:03:53;;;;;;;;;;;;;;;13.97;79.55;101124.28;5016799;28;19917;-75
2022/10/16 08:06:19;;;;;;;;;;;;;;;13.97;79.24;101126.03;5008694;28;19929;-76
2022/10/16 08:08:44;;;;;;;;;;;;;;;13.93;79.41;101120.06;5005120;28;19972;-76
2022/10/16 08:11:10;;;;;;;;;;;;;;;13.96;79.36;101125.19;5007483;28;19933;-76
2022/10/16 08:13:35;;;;;;;;;;;;;;;13.91;79.57;101123.63;5006422;28;19984;-76
2022/10/16 08:16:01;;;;;;;;;;;;;;;13.86;79.85;101120.25;5010905;28;20404;-76
2022/10/16 08:18:27;;;;;;;;;;;;;;;13.89;79.55;101134.09;5010087;28;19969;-75
2022/10/16 08:20:56;;;;;;;;;;;;;;;13.84;79.79;101129.91;5013692;28;19960;-75
2022/10/16 08:23:22;;;;;;;;;;;;;;;13.89;79.52;101135.84;5005455;28;20298;-76
2022/10/16 08:25:47;;;;;;;;;;;;;;;13.89;79.62;101136.72;5009723;28;19929;-75
2022/10/16 08:28:12;;;;;;;;;;;;;;;13.88;79.79;101139.38;5012664;28;20576;-75
2022/10/16 08:30:38;;;;;;;;;;;;;;;13.85;79.69;101142.91;5014465;28;20000;-76
2022/10/16 08:33:06;;;;;;;;;;;;;;;13.87;79.92;101141.13;5015451;28;19925;-76
2022/10/16 08:35:31;;;;;;;;;;;;;;;13.91;80.02;101141.91;5012470;28;19930;-76
2022/10/16 08:37:57;;;;;;;;;;;;;;;13.95;79.93;101151.34;5011990;28;19925;-75
2022/10/16 08:40:24;;;;;;;;;;;;;;;13.96;79.58;101153.06;5011665;28;20396;-75
2022/10/16 08:43:01;;;;;;;;;;;;;;;13.99;79.77;101163.44;5013105;28;19949;-75
2022/10/16 08:45:34;;;;;;;;;;;;;;;13.99;79.67;101158.19;5009357;28;19929;-76
2022/10/16 08:47:59;;;;;;;;;;;;;;;14.05;78.44;101164.13;5011390;28;19976;-76
2022/10/16 08:50:27;;;;;;;;;;;;;;;14.07;78.83;101164.91;5011672;28;20326;-76
2022/10/16 08:52:53;;;;;;;;;;;;;;;14.12;78.55;101170.00;5011502;28;19968;-76
2022/10/16 08:55:28;;;;;;;;;;;;;;;14.14;78.97;101173.44;5001330;28;20358;-76
2022/10/16 08:57:53;;;;;;;;;;;;;;;14.16;78.46;101166.41;5014382;28;19926;-76
2022/10/16 09:00:19;;;;;;;;;;;;;;;14.13;78.55;101171.72;5012367;28;19924;-76
2022/10/16 09:02:53;;;;;;;;;;;;;;;14.09;78.88;101175.31;5018056;28;19925;-75
2022/10/16 09:05:19;;;;;;;;;;;;;;;14.18;78.04;101177.66;5017030;28;19983;-76
2022/10/16 09:07:44;;;;;;;;;;;;;;;14.23;77.87;101181.00;5007655;28;19926;-76
2022/10/16 09:10:24;;;;;;;;;;;;;;;14.16;78.15;101175.09;5006467;28;19929;-76
2022/10/16 09:12:53;;;;;;;;;;;;;;;14.17;78.05;101176.81;5010670;28;19968;-76
2022/10/16 09:15:21;;;;;;;;;;;;;;;14.20;77.33;101186.31;4999914;28;19921;-76
2022/10/16 09:18:06;;;;;;;;;;;;;;;14.22;77.64;101182.75;5009963;28;20657;-76
2022/10/16 09:20:31;;;;;;;;;;;;;;;14.20;77.83;101187.19;4974467;28;19922;-76
2022/10/16 09:23:07;;;;;;;;;;;;;;;14.22;78.11;101189.75;5010515;28;19927;-76
2022/10/16 09:25:33;;;;;;;;;;;;;;;14.25;77.52;101187.91;5010539;28;20004;-75
2022/10/16 09:27:59;;;;;;;;;;;;;;;14.28;76.74;101197.41;5004208;28;20502;-76
2022/10/16 09:30:27;;;;;;;;;;;;;;;14.31;76.25;101189.47;5013623;28;19928;-76
2022/10/16 09:32:53;;;;;;;;;;;;;;;14.32;76.04;101193.81;5014894;28;19918;-76
2022/10/16 09:35:31;;;;;;;;;;;;;;;14.30;76.98;101195.59;5010188;28;19976;-75
2022/10/16 09:37:57;;;;;;;;;;;;;;;14.36;76.71;101184.94;5011828;28;19922;-75
2022/10/16 09:40:38;;;;;;;;;;;;;;;14.48;75.87;101187.19;5008697;28;19922;-76
2022/10/16 09:43:13;;;;;;;;;;;;;;;14.50;75.71;101187.16;5018893;28;20363;-75
2022/10/16 09:45:38;;;;;;;;;;;;;;;14.51;75.33;101187.09;5010822;28;19921;-76
2022/10/16 09:48:11;;;;;;;;;;;;;;;14.50;74.67;101176.72;5012107;28;20291;-75
2022/10/16 09:50:36;;;;;;;;;;;;;;;14.48;74.56;101188.94;5011105;28;20012;-76
2022/10/16 09:53:05;;;;;;;;;;;;;;;14.52;74.28;101177.50;5010868;28;20434;-75
2022/10/16 09:55:31;;;;;;;;;;;;;;;14.51;73.32;101194.94;5009229;28;19925;-75
2022/10/16 09:57:56;;;;;;;;;;;;;;;14.48;74.05;101194.19;5011764;28;19921;-75
2022/10/16 10:00:22;;;;;;;;;;;;;;;14.46;74.98;101196.84;5012135;28;20007;-75
2022/10/16 10:02:48;;;;;;;;;;;;;;;14.48;75.19;101191.56;5013216;28;20004;-75
2022/10/16 10:05:19;;;;;;;;;;;;;;;14.55;74.29;101186.13;5020134;28;20012;-75
2022/10/16 10:07:49;;;;;;;;;;;;;;;14.59;73.75;101186.88;5008512;28;20380;-75
2022/10/16 10:10:22;;;;;;;;;;;;;;;14.63;72.15;101184.13;5009285;28;20054;-75
2022/10/16 10:12:47;;;;;;;;;;;;;;;14.67;72.62;101177.03;5006182;28;19921;-75
2022/10/16 10:15:13;;;;;;;;;;;;;;;14.69;72.37;101170.00;5013388;28;19932;-75
2022/10/16 10:17:48;;;;;;;;;;;;;;;14.67;72.60;101171.81;5008079;28;19921;-75
2022/10/16 10:20:25;;;;;;;;;;;;;;;14.70;71.77;101172.56;5009600;28;19965;-75
2022/10/16 10:22:50;;;;;;;;;;;;;;;14.73;70.91;101167.25;5010788;28;19917;-75
2022/10/16 10:25:24;;;;;;;;;;;;;;;14.75;71.27;101167.22;5009213;28;20394;-75
2022/10/16 10:27:49;;;;;;;;;;;;;;;14.82;68.14;101159.16;5006572;28;20044;-76
2022/10/16 10:30:17;;;;;;;;;;;;;;;14.91;70.14;101160.59;5009044;28;20008;-76
2022/10/16 10:32:56;;;;;;;;;;;;;;;14.92;70.58;101154.44;5009922;28;20364;-76
2022/10/16 10:35:30;;;;;;;;;;;;;;;15.07;65.27;101156.56;5006898;28;19922;-75
2022/10/16 10:38:03;;;;;;;;;;;;;;;15.18;65.83;101171.91;5010374;28;19979;-75
2022/10/16 10:40:41;;;;;;;;;;;;;;;15.22;64.81;101173.50;5009526;28;19921;-75
2022/10/16 10:43:25;;;;;;;;;;;;;;;15.12;67.39;101177.34;5007895;28;19928;-75
2022/10/16 10:45:58;;;;;;;;;;;;;;;15.10;67.75;101171.28;5006842;28;19929;-75
2022/10/16 10:48:32;;;;;;;;;;;;;;;15.19;66.35;101174.47;5009471;28;19972;-76
2022/10/16 10:51:12;;;;;;;;;;;;;;;15.18;66.74;101174.53;5010511;28;19952;-75
2022/10/16 10:53:54;;;;;;;;;;;;;;;15.13;64.83;101168.56;4997273;28;20350;-75
2022/10/16 10:56:25;;;;;;;;;;;;;;;15.08;66.83;101167.88;5012559;28;19921;-76
2022/10/16 10:58:56;;;;;;;;;;;;;;;15.05;66.72;101178.44;5012472;28;19917;-76
2022/10/16 11:01:25;;;;;;;;;;;;;;;15.01;68.76;101177.69;5009446;28;19944;-75
2022/10/16 11:04:04;;;;;;;;;;;;;;;14.96;68.53;101176.13;5008697;28;19928;-76
2022/10/16 11:06:36;;;;;;;;;;;;;;;14.92;68.39;101172.75;5008858;28;19917;-76
2022/10/16 11:09:20;;;;;;;;;;;;;;;14.94;69.83;101185.81;5007780;28;20440;-75
2022/10/16 11:11:49;;;;;;;;;;;;;;;15.02;67.84;101184.66;5008144;28;19922;-75
2022/10/16 11:14:14;;;;;;;;;;;;;;;15.00;68.83;101183.84;5008459;28;19960;-75
2022/10/16 11:16:54;;;;;;;;;;;;;;;14.98;67.69;101182.19;5015178;28;20011;-75
2022/10/16 11:19:55;;;;;;;;;;;;;;;15.01;66.34;101182.94;5008765;28;19921;-75
2022/10/16 11:22:26;;;;;;;;;;;;;;;14.99;67.35;101179.50;4948032;28;19919;-75
2022/10/16 11:25:10;;;;;;;;;;;;;;;14.99;68.41;101178.66;4999486;28;20013;-75
2022/10/16 11:27:35;;;;;;;;;;;;;;;15.03;66.67;101181.13;5013600;28;19933;-75
2022/10/16 11:30:02;;;;;;;;;;;;;;;15.14;65.05;101170.28;5013169;28;19913;-75
2022/10/16 11:32:31;;;;;;;;;;;;;;;15.14;65.03;101176.41;5011357;28;19921;-76
2022/10/16 11:35:11;;;;;;;;;;;;;;;15.06;66.73;101177.56;5007876;28;20391;-75
2022/10/16 11:37:42;;;;;;;;;;;;;;;15.08;67.00;101179.22;5009122;28;19948;-75
2022/10/16 11:40:28;;;;;;;;;;;;;;;15.01;68.98;101182.06;4992057;28;19930;-75
2022/10/16 11:42:57;;;;;;;;;;;;;;;14.99;68.93;101192.59;5009096;28;19965;-76
2022/10/16 11:45:23;;;;;;;;;;;;;;;14.99;69.19;101187.34;4990761;28;19922;-76
2022/10/16 11:47:52;;;;;;;;;;;;;;;15.00;69.18;101188.22;5009252;28;19920;-75
2022/10/16 11:50:17;;;;;;;;;;;;;;;15.00;69.04;101194.31;5008348;28;19929;-75
2022/10/16 11:53:02;;;;;;;;;;;;;;;15.03;69.25;101199.44;5008080;28;19926;-76
2022/10/16 11:55:31;;;;;;;;;;;;;;;15.05;69.42;101197.63;4997129;28;19933;-75
2022/10/16 11:57:59;;;;;;;;;;;;;;;15.02;69.67;101196.88;5013316;28;19970;-75
2022/10/16 12:00:30;;;;;;;;;;;;;;;15.03;69.32;101196.84;5008681;28;20016;-75
2022/10/16 12:03:02;;;;;;;;;;;;;;;15.10;69.34;101200.94;5011760;28;19922;-75
2022/10/16 12:05:48;;;;;;;;;;;;;;;15.09;69.37;101201.88;5011650;28;19924;-75
2022/10/16 12:08:14;;;;;;;;;;;;;;;15.26;66.53;101194.31;5002119;28;19918;-75
2022/10/16 12:10:41;;;;;;;;;;;;;;;15.28;65.83;101192.47;5004848;28;20633;-76
2022/10/16 12:13:24;;;;;;;;;;;;;;;15.25;67.92;101199.56;5006786;28;19921;-76
2022/10/16 12:15:50;;;;;;;;;;;;;;;15.18;69.10;101198.09;5011173;28;19925;-75
2022/10/16 12:18:22;;;;;;;;;;;;;;;15.24;67.62;101195.28;5008502;28;19940;-75
2022/10/16 12:20:58;;;;;;;;;;;;;;;15.22;68.29;101189.22;5009890;28;19914;-75
2022/10/16 12:23:24;;;;;;;;;;;;;;;15.16;68.40;101181.56;5001547;28;19975;-75
2022/10/16 12:25:57;;;;;;;;;;;;;;;15.24;66.00;101183.03;5009586;28;19929;-75
2022/10/16 12:28:26;;;;;;;;;;;;;;;15.19;68.45;101190.16;5009866;28;19917;-75
2022/10/16 12:30:55;;;;;;;;;;;;;;;15.16;67.80;101190.28;5010810;28;20397;-75
2022/10/16 12:33:23;;;;;;;;;;;;;;;15.14;68.83;101201.69;5006384;28;20310;-75
2022/10/16 12:35:48;;;;;;;;;;;;;;;15.16;68.88;101194.66;5019147;28;19921;-75
2022/10/16 12:38:19;;;;;;;;;;;;;;;15.15;69.06;101195.56;5006792;28;19922;-75
2022/10/16 12:40:47;;;;;;;;;;;;;;;15.15;69.35;101190.34;5004693;28;19928;-75